createdAt,value
2019-01-03T00:00:25.879Z,0.25
2019-01-03T00:03:28.744Z,0.23
2019-01-03T00:06:17.434Z,0.20
2019-01-03T00:09:01.396Z,0.30
2019-01-03T00:12:11.673Z,0.27
2019-01-03T00:15:02.127Z,0.28
2019-01-03T00:18:08.914Z,0.26
2019-01-03T00:21:16.311Z,0.30
2019-01-03T00:24:01.182Z,0.32
2019-01-03T00:26:57.238Z,0.32
2019-01-03T00:29:46.314Z,0.29
2019-01-03T00:32:35.060Z,0.25
2019-01-03T00:35:25.345Z,0.28
2019-01-03T00:38:15.142Z,0.27
2019-01-03T00:41:04.071Z,0.23
2019-01-03T00:44:03.347Z,0.27
2019-01-03T00:47:05.629Z,0.28
2019-01-03T00:49:54.424Z,0.20
2019-01-03T00:52:43.366Z,0.25
2019-01-03T00:55:39.482Z,0.23
2019-01-03T00:58:41.817Z,0.26
2019-01-03T01:01:31.984Z,0.25
2019-01-03T01:04:20.671Z,0.21
2019-01-03T01:07:10.872Z,0.24
2019-01-03T01:10:01.165Z,0.25
2019-01-03T01:12:49.928Z,0.28
2019-01-03T01:15:40.309Z,0.14
2019-01-03T01:18:30.822Z,0.10
2019-01-03T01:21:36.360Z,0.20
2019-01-03T01:24:25.354Z,0.18
2019-01-03T01:27:15.547Z,0.18
2019-01-03T01:30:05.655Z,0.11
2019-01-03T01:32:55.919Z,0.04
2019-01-03T01:35:49.251Z,-0.03
2019-01-03T01:38:37.190Z,-0.01
2019-01-03T01:41:26.434Z,0.00
2019-01-03T01:44:19.498Z,0.05
2019-01-03T01:47:12.881Z,0.02
2019-01-03T01:50:19.691Z,0.07
2019-01-03T01:53:22.948Z,0.00
2019-01-03T01:56:16.272Z,-0.07
2019-01-03T01:59:06.420Z,-0.01
2019-01-03T02:02:00.667Z,-0.04
2019-01-03T02:04:50.860Z,-0.06
2019-01-03T02:07:40.896Z,-0.04
2019-01-03T02:10:31.055Z,-0.06
2019-01-03T02:13:27.078Z,-0.25
2019-01-03T02:16:23.572Z,-0.26
2019-01-03T02:19:18.210Z,-0.20
2019-01-03T02:22:08.863Z,-0.17
2019-01-03T02:25:04.892Z,-0.18
2019-01-03T02:27:47.884Z,-0.18
2019-01-03T02:30:33.802Z,-0.22
2019-01-03T02:33:17.984Z,-0.19
2019-01-03T02:36:07.227Z,-0.19
2019-01-03T02:38:57.383Z,-0.17
2019-01-03T02:41:46.327Z,-0.19
2019-01-03T02:44:35.211Z,-0.18
2019-01-03T02:47:40.494Z,-0.11
2019-01-03T02:50:33.656Z,-0.11
2019-01-03T02:53:24.068Z,-0.04
2019-01-03T02:56:13.982Z,-0.03
2019-01-03T02:59:10.085Z,0.03
2019-01-03T03:02:00.449Z,0.07
2019-01-03T03:04:56.710Z,0.05
2019-01-03T03:07:54.612Z,-0.18
2019-01-03T03:10:47.948Z,-0.14
2019-01-03T03:13:41.555Z,-0.04
2019-01-03T03:16:43.939Z,-0.02
2019-01-03T03:19:36.947Z,-0.02
2019-01-03T03:22:42.444Z,0.03
2019-01-03T03:25:44.483Z,-0.02
2019-01-03T03:28:33.326Z,-0.12
2019-01-03T03:31:23.583Z,-0.10
2019-01-03T03:34:08.750Z,-0.12
2019-01-03T03:36:57.523Z,-0.13
2019-01-03T03:39:46.590Z,-0.24
2019-01-03T03:42:36.760Z,-0.21
2019-01-03T03:45:20.257Z,-0.21
2019-01-03T03:48:22.844Z,-0.20
2019-01-03T03:51:19.174Z,-0.15
2019-01-03T03:54:18.614Z,-0.17
2019-01-03T03:57:03.635Z,-0.25
2019-01-03T03:59:52.586Z,-0.22
2019-01-03T04:02:42.798Z,-0.22
2019-01-03T04:05:35.905Z,-0.24
2019-01-03T04:08:38.769Z,-0.18
2019-01-03T04:11:28.018Z,-0.15
2019-01-03T04:14:18.232Z,-0.06
2019-01-03T04:17:07.241Z,-0.17
2019-01-03T04:19:55.975Z,-0.14
2019-01-03T04:22:52.190Z,-0.16
2019-01-03T04:25:54.810Z,-0.22
2019-01-03T04:28:43.655Z,-0.19
2019-01-03T04:31:36.739Z,-0.23
2019-01-03T04:34:32.989Z,-0.25
2019-01-03T04:37:21.926Z,-0.26
2019-01-03T04:40:11.970Z,-0.19
2019-01-03T04:43:00.674Z,-0.23
2019-01-03T04:45:45.178Z,-0.22
2019-01-03T04:48:36.797Z,-0.22
2019-01-03T04:51:25.676Z,-0.17
2019-01-03T04:54:25.218Z,-0.25
2019-01-03T04:57:21.389Z,-0.20
2019-01-03T05:00:15.185Z,-0.07
2019-01-03T05:03:17.625Z,-0.07
2019-01-03T05:06:06.722Z,-0.08
2019-01-03T05:09:08.764Z,-0.01
2019-01-03T05:12:08.120Z,0.08
2019-01-03T05:15:14.009Z,0.19
2019-01-03T05:18:11.282Z,0.18
2019-01-03T05:21:07.388Z,0.17
2019-01-03T05:23:57.842Z,0.22
2019-01-03T05:26:48.184Z,0.16
2019-01-03T05:29:37.734Z,0.22
2019-01-03T05:32:26.649Z,0.21
2019-01-03T05:35:20.004Z,0.24
2019-01-03T05:38:08.785Z,0.25
2019-01-03T05:40:57.510Z,0.14
2019-01-03T05:44:05.887Z,0.21
2019-01-03T05:47:05.247Z,0.23
2019-01-03T05:49:53.801Z,0.33
2019-01-03T05:52:59.423Z,0.35
2019-01-03T05:56:09.125Z,0.36
2019-01-03T05:58:49.174Z,0.44
2019-01-03T06:01:38.017Z,0.42
2019-01-03T06:04:28.121Z,0.44
2019-01-03T06:07:18.299Z,0.36
2019-01-03T06:10:06.205Z,0.38
2019-01-03T06:12:48.974Z,0.39
2019-01-03T06:15:45.113Z,0.35
2019-01-03T06:18:46.981Z,0.49
2019-01-03T06:21:35.755Z,0.52
2019-01-03T06:24:26.139Z,0.54
2019-01-03T06:27:22.216Z,0.52
2019-01-03T06:30:11.261Z,0.43
2019-01-03T06:33:19.706Z,0.46
2019-01-03T06:36:09.999Z,0.44
2019-01-03T06:39:06.073Z,0.49
2019-01-03T06:41:55.068Z,0.60
2019-01-03T06:44:46.353Z,0.63
2019-01-03T06:47:31.232Z,0.60
2019-01-03T06:50:30.318Z,0.58
2019-01-03T06:53:18.421Z,0.62
2019-01-03T06:56:07.450Z,0.70
2019-01-03T06:59:03.785Z,0.69
2019-01-03T07:01:53.717Z,0.74
2019-01-03T07:04:38.307Z,0.67
2019-01-03T07:07:24.059Z,0.61
2019-01-03T07:10:23.361Z,0.69
2019-01-03T07:13:31.929Z,0.73
2019-01-03T07:16:23.156Z,0.72
2019-01-03T07:19:07.400Z,0.71
2019-01-03T07:22:00.381Z,0.73
2019-01-03T07:24:49.334Z,0.84
2019-01-03T07:27:45.641Z,0.74
2019-01-03T07:30:34.567Z,0.71
2019-01-03T07:33:23.338Z,0.81
2019-01-03T07:36:25.868Z,0.85
2019-01-03T07:39:25.107Z,0.81
2019-01-03T07:42:15.388Z,0.90
2019-01-03T07:45:11.714Z,0.94
2019-01-03T07:48:02.001Z,0.96
2019-01-03T07:50:59.168Z,1.07
2019-01-03T07:53:48.025Z,1.18
2019-01-03T07:56:39.625Z,1.12
2019-01-03T07:59:28.649Z,1.15
2019-01-03T08:02:30.986Z,1.18
2019-01-03T08:05:21.370Z,1.28
2019-01-03T08:08:24.430Z,1.18
2019-01-03T08:11:06.719Z,1.28
2019-01-03T08:14:12.106Z,1.36
2019-01-03T08:17:06.832Z,1.44
2019-01-03T08:20:02.698Z,1.50
2019-01-03T08:22:56.820Z,1.49
2019-01-03T08:26:05.328Z,1.46
2019-01-03T08:28:50.662Z,1.40
2019-01-03T08:31:46.854Z,1.53
2019-01-03T08:34:38.199Z,1.46
2019-01-03T08:37:28.543Z,1.56
2019-01-03T08:40:17.734Z,1.71
2019-01-03T08:43:03.368Z,1.88
2019-01-03T08:45:56.576Z,2.07
2019-01-03T08:48:45.460Z,2.32
2019-01-03T08:51:35.731Z,2.45
2019-01-03T08:54:31.923Z,2.61
2019-01-03T08:57:21.196Z,2.65
2019-01-03T09:00:23.758Z,2.81
2019-01-03T09:03:12.853Z,2.97
2019-01-03T09:06:03.012Z,3.16
2019-01-03T09:08:59.508Z,3.44
2019-01-03T09:11:52.881Z,3.73
2019-01-03T09:14:43.650Z,3.86
2019-01-03T09:17:44.883Z,4.26
2019-01-03T09:20:33.189Z,4.59
2019-01-03T09:23:22.278Z,4.84
2019-01-03T09:26:15.471Z,5.02
2019-01-03T09:29:04.718Z,5.42
2019-01-03T09:32:07.057Z,5.58
2019-01-03T09:35:00.490Z,5.56
2019-01-03T09:38:13.598Z,5.83
2019-01-03T09:41:02.709Z,5.86
2019-01-03T09:43:55.735Z,6.06
2019-01-03T09:46:27.200Z,6.06
2019-01-03T09:48:58.663Z,6.29
2019-01-03T09:51:30.085Z,6.27
2019-01-03T09:54:01.694Z,6.10
2019-01-03T09:56:33.563Z,6.27
2019-01-03T09:59:05.009Z,6.14
2019-01-03T10:01:36.555Z,6.24
2019-01-03T10:04:07.946Z,6.19
2019-01-03T10:06:40.007Z,6.60
2019-01-03T10:09:11.552Z,6.80
2019-01-03T10:11:43.028Z,6.87
2019-01-03T10:14:14.564Z,7.12
2019-01-03T10:16:46.002Z,7.21
2019-01-03T10:19:17.603Z,7.18
2019-01-03T10:21:49.088Z,7.61
2019-01-03T10:24:20.593Z,7.95
2019-01-03T10:26:54.698Z,7.89
2019-01-03T10:29:26.740Z,8.21
2019-01-03T10:31:58.234Z,7.95
2019-01-03T10:34:29.656Z,8.07
2019-01-03T10:37:01.915Z,8.17
2019-01-03T10:39:33.463Z,8.04
2019-01-03T10:42:05.046Z,8.40
2019-01-03T10:44:36.593Z,7.92
2019-01-03T10:47:08.294Z,7.55
2019-01-03T10:49:41.164Z,7.46
2019-01-03T10:52:12.893Z,7.26
2019-01-03T10:54:44.333Z,7.06
2019-01-03T10:57:15.998Z,6.51
2019-01-03T10:59:47.636Z,6.14
2019-01-03T11:02:19.244Z,6.09
2019-01-03T11:04:50.670Z,5.98
2019-01-03T11:07:22.119Z,5.80
2019-01-03T11:09:53.653Z,5.52
2019-01-03T11:12:24.938Z,5.33
2019-01-03T11:14:56.432Z,5.12
2019-01-03T11:17:27.857Z,5.31
2019-01-03T11:19:59.361Z,5.23
2019-01-03T11:22:30.744Z,5.17
2019-01-03T11:25:02.141Z,5.06
2019-01-03T11:27:33.559Z,5.06
2019-01-03T11:30:05.123Z,5.22
2019-01-03T11:32:36.584Z,5.10
2019-01-03T11:35:08.282Z,5.22
2019-01-03T11:37:39.525Z,5.09
2019-01-03T11:40:11.104Z,5.17
2019-01-03T11:42:42.484Z,5.15
2019-01-03T11:45:13.961Z,5.10
2019-01-03T11:47:45.453Z,5.02
2019-01-03T11:50:16.828Z,4.96
2019-01-03T11:52:48.348Z,4.81
2019-01-03T11:55:19.965Z,4.70
2019-01-03T11:57:51.537Z,4.89
2019-01-03T12:00:23.005Z,4.86
2019-01-03T12:02:54.479Z,4.89
2019-01-03T12:05:26.122Z,4.97
2019-01-03T12:07:57.634Z,4.83
2019-01-03T12:10:29.214Z,4.83
2019-01-03T12:13:00.524Z,4.75
2019-01-03T12:15:32.046Z,4.65
2019-01-03T12:18:03.613Z,4.64
2019-01-03T12:20:35.106Z,4.65
2019-01-03T12:23:06.690Z,4.64
2019-01-03T12:25:38.107Z,4.62
2019-01-03T12:28:09.538Z,4.56
2019-01-03T12:30:41.149Z,4.46
2019-01-03T12:33:12.679Z,4.45
2019-01-03T12:35:44.129Z,4.34
2019-01-03T12:38:15.677Z,4.21
2019-01-03T12:40:47.114Z,4.14
2019-01-03T12:43:18.525Z,4.09
2019-01-03T12:45:49.996Z,4.02
2019-01-03T12:48:21.347Z,4.08
2019-01-03T12:50:52.935Z,4.23
2019-01-03T12:53:24.758Z,4.12
2019-01-03T12:55:56.135Z,4.15
2019-01-03T12:58:27.676Z,4.03
2019-01-03T13:00:59.203Z,3.93
2019-01-03T13:03:30.772Z,3.99
2019-01-03T13:06:02.190Z,3.84
2019-01-03T13:08:33.596Z,3.84
2019-01-03T13:11:05.205Z,3.76
2019-01-03T13:13:37.580Z,3.62
2019-01-03T13:16:09.138Z,3.60
2019-01-03T13:18:40.586Z,3.45
2019-01-03T13:21:12.109Z,3.44
2019-01-03T13:23:43.575Z,3.39
2019-01-03T13:26:14.908Z,3.39
2019-01-03T13:28:46.331Z,3.46
2019-01-03T13:31:19.276Z,3.42
2019-01-03T13:33:50.740Z,3.48
2019-01-03T13:36:22.188Z,3.41
2019-01-03T13:38:53.603Z,3.35
2019-01-03T13:41:25.215Z,3.29
2019-01-03T13:43:56.679Z,3.24
2019-01-03T13:46:28.170Z,3.12
2019-01-03T13:48:59.735Z,3.04
2019-01-03T13:51:31.307Z,2.98
2019-01-03T13:54:02.834Z,3.00
2019-01-03T13:56:34.290Z,2.99
2019-01-03T13:59:05.715Z,2.92
2019-01-03T14:01:37.142Z,2.86
2019-01-03T14:04:08.577Z,2.84
2019-01-03T14:06:40.078Z,2.76
2019-01-03T14:09:11.539Z,2.76
2019-01-03T14:11:42.878Z,2.63
2019-01-03T14:14:14.430Z,2.58
2019-01-03T14:16:45.985Z,2.50
2019-01-03T14:19:17.478Z,2.40
2019-01-03T14:21:48.987Z,2.40
2019-01-03T14:24:20.439Z,2.31
2019-01-03T14:26:51.930Z,2.25
2019-01-03T14:29:23.495Z,2.16
2019-01-03T14:31:54.983Z,2.15
2019-01-03T14:34:26.368Z,2.16
2019-01-03T14:36:58.762Z,2.21
2019-01-03T14:39:30.552Z,2.12
2019-01-03T14:42:02.054Z,2.13
2019-01-03T14:44:33.509Z,2.04
2019-01-03T14:47:07.339Z,2.09
2019-01-03T14:49:38.857Z,2.04
2019-01-03T14:52:10.303Z,2.06
2019-01-03T14:54:41.887Z,2.03
2019-01-03T14:57:13.414Z,2.05
2019-01-03T14:59:44.820Z,1.98
2019-01-03T15:02:16.380Z,2.00
2019-01-03T15:04:47.878Z,1.96
2019-01-03T15:07:19.333Z,1.92
2019-01-03T15:09:50.737Z,1.91
2019-01-03T15:12:22.282Z,1.88
2019-01-03T15:14:53.654Z,1.83
2019-01-03T15:17:25.173Z,1.78
2019-01-03T15:19:56.776Z,1.68
2019-01-03T15:22:28.198Z,1.65
2019-01-03T15:24:59.791Z,1.69
2019-01-03T15:27:31.287Z,1.60
2019-01-03T15:30:02.872Z,1.62
2019-01-03T15:32:34.720Z,1.56
2019-01-03T15:35:06.333Z,1.55
2019-01-03T15:37:37.808Z,1.53
2019-01-03T15:40:09.574Z,1.47
2019-01-03T15:42:41.075Z,1.48
2019-01-03T15:45:12.686Z,1.48
2019-01-03T15:47:44.286Z,1.49
2019-01-03T15:50:15.914Z,1.37
2019-01-03T15:52:47.454Z,1.35
2019-01-03T15:55:19.135Z,1.36
2019-01-03T15:57:50.877Z,1.33
2019-01-03T16:00:22.486Z,1.29
2019-01-03T16:02:55.847Z,1.28
2019-01-03T16:05:27.398Z,1.26
2019-01-03T16:07:58.925Z,1.25
2019-01-03T16:10:30.497Z,1.18
2019-01-03T16:13:03.351Z,1.11
2019-01-03T16:15:34.926Z,1.12
2019-01-03T16:18:06.554Z,1.08
2019-01-03T16:20:38.165Z,1.11
2019-01-03T16:23:09.764Z,1.12
2019-01-03T16:25:41.442Z,1.10
2019-01-03T16:28:13.324Z,1.05
2019-01-03T16:30:45.299Z,1.01
2019-01-03T16:33:17.013Z,0.96
2019-01-03T16:35:49.695Z,0.97
2019-01-03T16:38:21.318Z,0.88
2019-01-03T16:40:52.938Z,0.89
2019-01-03T16:43:24.689Z,0.90
2019-01-03T16:45:56.513Z,0.93
2019-01-03T16:48:27.953Z,0.96
2019-01-03T16:50:59.294Z,0.85
2019-01-03T16:53:30.974Z,0.85
2019-01-03T16:56:02.443Z,0.85
2019-01-03T16:58:34.080Z,0.82
2019-01-03T17:01:05.713Z,0.74
2019-01-03T17:03:37.752Z,0.79
2019-01-03T17:06:24.969Z,0.75
2019-01-03T17:08:56.726Z,0.72
2019-01-03T17:11:28.154Z,0.75
2019-01-03T17:14:00.019Z,0.73
2019-01-03T17:16:31.689Z,0.74
2019-01-03T17:19:03.247Z,0.70
2019-01-03T17:21:34.812Z,0.67
2019-01-03T17:24:06.255Z,0.62
2019-01-03T17:26:37.958Z,0.59
2019-01-03T17:29:09.369Z,0.61
2019-01-03T17:31:42.158Z,0.65
2019-01-03T17:34:13.855Z,0.65
2019-01-03T17:36:45.453Z,0.64
2019-01-03T17:39:17.243Z,0.71
2019-01-03T17:41:50.522Z,0.65
2019-01-03T17:44:22.121Z,0.64
2019-01-03T17:46:54.860Z,0.66
2019-01-03T17:49:27.518Z,0.65
2019-01-03T17:51:59.179Z,0.66
2019-01-03T17:54:30.685Z,0.67
2019-01-03T17:57:05.430Z,0.66
2019-01-03T17:59:37.009Z,0.68
2019-01-03T18:02:11.202Z,0.67
2019-01-03T18:04:42.831Z,0.60
2019-01-03T18:07:14.399Z,0.63
2019-01-03T18:09:45.978Z,0.58
2019-01-03T18:12:17.619Z,0.58
2019-01-03T18:14:49.200Z,0.55
2019-01-03T18:17:20.885Z,0.51
2019-01-03T18:19:52.646Z,0.56
2019-01-03T18:22:24.490Z,0.58
2019-01-03T18:24:56.313Z,0.49
2019-01-03T18:27:28.044Z,0.49
2019-01-03T18:29:59.676Z,0.44
2019-01-03T18:32:31.453Z,0.46
2019-01-03T18:35:03.161Z,0.44
2019-01-03T18:37:34.911Z,0.44
2019-01-03T18:40:06.950Z,0.43
2019-01-03T18:42:38.399Z,0.35
2019-01-03T18:45:12.273Z,0.37
2019-01-03T18:47:44.094Z,0.34
2019-01-03T18:50:18.866Z,0.36
2019-01-03T18:52:49.133Z,0.38
2019-01-03T18:55:21.088Z,0.40
2019-01-03T18:57:52.773Z,0.36
2019-01-03T19:00:27.489Z,0.35
2019-01-03T19:02:59.056Z,0.39
2019-01-03T19:05:30.766Z,0.37
2019-01-03T19:08:02.158Z,0.32
2019-01-03T19:10:36.974Z,0.33
2019-01-03T19:13:08.596Z,0.34
2019-01-03T19:15:40.281Z,0.32
2019-01-03T19:18:11.805Z,0.26
2019-01-03T19:20:43.378Z,0.25
2019-01-03T19:23:14.837Z,0.27
2019-01-03T19:25:46.734Z,0.27
2019-01-03T19:28:18.258Z,0.27
2019-01-03T19:30:49.883Z,0.32
2019-01-03T19:33:21.560Z,0.27
2019-01-03T19:35:53.086Z,0.24
2019-01-03T19:38:24.581Z,0.27
2019-01-03T19:40:56.097Z,0.15
2019-01-03T19:43:27.514Z,0.12
2019-01-03T19:45:59.044Z,0.05
2019-01-03T19:48:30.841Z,0.12
2019-01-03T19:51:02.592Z,0.10
2019-01-03T19:53:34.357Z,0.08
2019-01-03T19:56:06.015Z,0.03
2019-01-03T19:58:37.569Z,0.05
2019-01-03T20:01:09.233Z,0.00
2019-01-03T20:03:42.482Z,-0.07
2019-01-03T20:06:14.072Z,-0.09
2019-01-03T20:08:45.718Z,-0.11
2019-01-03T20:11:17.420Z,-0.13
2019-01-03T20:13:48.896Z,-0.15
2019-01-03T20:16:20.644Z,-0.11
2019-01-03T20:18:52.298Z,-0.17
2019-01-03T20:21:23.814Z,-0.19
2019-01-03T20:24:02.973Z,-0.20
2019-01-03T20:26:44.076Z,-0.25
2019-01-03T20:29:17.913Z,-0.27
2019-01-03T20:31:49.535Z,-0.34
2019-01-03T20:34:23.415Z,-0.33
2019-01-03T20:36:55.372Z,-0.37
2019-01-03T20:39:27.205Z,-0.38
2019-01-03T20:41:58.755Z,-0.44
2019-01-03T20:44:30.244Z,-0.49
2019-01-03T20:47:03.053Z,-0.44
2019-01-03T20:49:34.482Z,-0.44
2019-01-03T20:52:08.358Z,-0.43
2019-01-03T20:54:39.846Z,-0.47
2019-01-03T20:57:12.967Z,-0.48
2019-01-03T20:59:44.849Z,-0.51
2019-01-03T21:02:17.214Z,-0.56
2019-01-03T21:04:48.892Z,-0.59
2019-01-03T21:07:21.231Z,-0.57
2019-01-03T21:09:52.954Z,-0.56
2019-01-03T21:12:24.740Z,-0.64
2019-01-03T21:14:56.285Z,-0.63
2019-01-03T21:17:28.090Z,-0.68
2019-01-03T21:19:59.754Z,-0.64
2019-01-03T21:22:31.413Z,-0.67
2019-01-03T21:25:03.083Z,-0.69
2019-01-03T21:27:34.733Z,-0.71
2019-01-03T21:30:08.530Z,-0.80
2019-01-03T21:32:40.414Z,-0.80
2019-01-03T21:35:12.289Z,-0.79
2019-01-03T21:37:43.889Z,-0.86
2019-01-03T21:40:15.660Z,-0.87
2019-01-03T21:42:47.256Z,-0.84
2019-01-03T21:45:24.332Z,-0.84
2019-01-03T21:47:58.020Z,-0.84
2019-01-03T21:50:31.120Z,-0.83
2019-01-03T21:53:02.770Z,-0.80
2019-01-03T21:55:34.376Z,-0.75
2019-01-03T21:58:06.329Z,-0.81
2019-01-03T22:00:37.952Z,-0.89
2019-01-03T22:03:09.355Z,-0.84
2019-01-03T22:05:40.859Z,-0.90
2019-01-03T22:08:12.484Z,-0.92
2019-01-03T22:10:44.038Z,-0.95
2019-01-03T22:13:15.798Z,-0.99
2019-01-03T22:15:47.380Z,-1.01
2019-01-03T22:18:18.932Z,-0.98
2019-01-03T22:20:50.449Z,-0.98
2019-01-03T22:23:22.604Z,-1.01
2019-01-03T22:25:54.336Z,-0.96
2019-01-03T22:28:25.854Z,-1.03
2019-01-03T22:30:57.402Z,-1.08
2019-01-03T22:33:28.979Z,-1.06
2019-01-03T22:36:00.448Z,-1.06
2019-01-03T22:38:32.649Z,-1.09
2019-01-03T22:41:05.446Z,-1.08
2019-01-03T22:43:40.010Z,-1.06
2019-01-03T22:46:11.718Z,-1.07
2019-01-03T22:48:44.843Z,-1.09
2019-01-03T22:51:20.073Z,-1.10
2019-01-03T22:53:54.076Z,-1.15
2019-01-03T22:56:25.953Z,-1.14
2019-01-03T22:59:04.732Z,-1.25
2019-01-03T23:01:36.831Z,-1.23
2019-01-03T23:04:10.837Z,-1.24
2019-01-03T23:06:51.720Z,-1.29
2019-01-03T23:09:25.752Z,-1.35
2019-01-03T23:12:01.244Z,-1.39
2019-01-03T23:14:32.645Z,-1.38
2019-01-03T23:17:04.211Z,-1.40
2019-01-03T23:19:35.773Z,-1.45
2019-01-03T23:22:07.356Z,-1.41
2019-01-03T23:24:39.076Z,-1.42
2019-01-03T23:27:12.370Z,-1.52
2019-01-03T23:29:43.910Z,-1.55
2019-01-03T23:32:15.649Z,-1.55
2019-01-03T23:34:47.247Z,-1.54
2019-01-03T23:37:18.892Z,-1.52
2019-01-03T23:39:50.216Z,-1.55
2019-01-03T23:42:21.754Z,-1.59
2019-01-03T23:45:17.336Z,-1.63
2019-01-03T23:47:50.000Z,-1.66
2019-01-03T23:50:25.562Z,-1.66
2019-01-03T23:52:57.043Z,-1.68
2019-01-03T23:55:29.932Z,-1.71
2019-01-03T23:58:01.486Z,-1.79
